sensor_id;sensor_type;location;lat;lon;timestamp;P1;durP1;ratioP1;P2;durP2;ratioP2
31978;SDS011;18502;43.574;1.276;2023-07-13T00:02:14;3.47;;;1.88;;
31978;SDS011;18502;43.574;1.276;2023-07-13T00:04:40;3.72;;;2.08;;
31978;SDS011;18502;43.574;1.276;2023-07-13T00:07:06;3.85;;;2.03;;
31978;SDS011;18502;43.574;1.276;2023-07-13T00:09:33;3.78;;;2.03;;
31978;SDS011;18502;43.574;1.276;2023-07-13T00:11:58;3.88;;;2.05;;
31978;SDS011;18502;43.574;1.276;2023-07-13T00:14:25;3.45;;;2.17;;
31978;SDS011;18502;43.574;1.276;2023-07-13T00:16:52;3.70;;;2.10;;
31978;SDS011;18502;43.574;1.276;2023-07-13T00:19:18;3.42;;;1.80;;
31978;SDS011;18502;43.574;1.276;2023-07-13T00:21:43;1.98;;;1.77;;
31978;SDS011;18502;43.574;1.276;2023-07-13T00:24:14;3.67;;;2.22;;
31978;SDS011;18502;43.574;1.276;2023-07-13T00:26:41;3.83;;;2.13;;
31978;SDS011;18502;43.574;1.276;2023-07-13T00:29:11;2.22;;;1.90;;
31978;SDS011;18502;43.574;1.276;2023-07-13T00:31:37;2.45;;;1.95;;
31978;SDS011;18502;43.574;1.276;2023-07-13T00:34:02;4.55;;;1.95;;
31978;SDS011;18502;43.574;1.276;2023-07-13T00:36:29;3.35;;;1.95;;
31978;SDS011;18502;43.574;1.276;2023-07-13T00:38:55;3.97;;;1.85;;
31978;SDS011;18502;43.574;1.276;2023-07-13T00:41:21;4.88;;;2.38;;
31978;SDS011;18502;43.574;1.276;2023-07-13T00:43:47;5.32;;;1.88;;
31978;SDS011;18502;43.574;1.276;2023-07-13T00:46:15;3.28;;;2.00;;
31978;SDS011;18502;43.574;1.276;2023-07-13T00:48:44;5.35;;;1.80;;
31978;SDS011;18502;43.574;1.276;2023-07-13T00:51:12;3.65;;;1.90;;
31978;SDS011;18502;43.574;1.276;2023-07-13T00:53:39;4.68;;;2.03;;
31978;SDS011;18502;43.574;1.276;2023-07-13T00:56:05;4.97;;;1.80;;
31978;SDS011;18502;43.574;1.276;2023-07-13T00:58:31;5.18;;;2.30;;
31978;SDS011;18502;43.574;1.276;2023-07-13T01:00:58;3.50;;;1.55;;
31978;SDS011;18502;43.574;1.276;2023-07-13T01:03:24;3.42;;;1.90;;
31978;SDS011;18502;43.574;1.276;2023-07-13T01:05:49;1.95;;;1.70;;
31978;SDS011;18502;43.574;1.276;2023-07-13T01:08:16;4.35;;;1.98;;
31978;SDS011;18502;43.574;1.276;2023-07-13T01:10:52;2.58;;;1.80;;
31978;SDS011;18502;43.574;1.276;2023-07-13T01:13:19;2.97;;;2.13;;
31978;SDS011;18502;43.574;1.276;2023-07-13T01:15:46;3.10;;;2.40;;
31978;SDS011;18502;43.574;1.276;2023-07-13T01:18:15;2.67;;;2.08;;
31978;SDS011;18502;43.574;1.276;2023-07-13T01:20:53;3.53;;;2.05;;
31978;SDS011;18502;43.574;1.276;2023-07-13T01:23:20;3.13;;;2.15;;
31978;SDS011;18502;43.574;1.276;2023-07-13T01:25:46;4.00;;;2.22;;
31978;SDS011;18502;43.574;1.276;2023-07-13T01:28:12;2.78;;;1.90;;
31978;SDS011;18502;43.574;1.276;2023-07-13T01:30:38;3.17;;;2.00;;
31978;SDS011;18502;43.574;1.276;2023-07-13T01:33:08;3.13;;;1.75;;
31978;SDS011;18502;43.574;1.276;2023-07-13T01:35:34;4.83;;;2.33;;
31978;SDS011;18502;43.574;1.276;2023-07-13T01:38:01;4.93;;;2.05;;
31978;SDS011;18502;43.574;1.276;2023-07-13T01:40:28;4.78;;;1.90;;
31978;SDS011;18502;43.574;1.276;2023-07-13T01:42:54;4.65;;;1.80;;
31978;SDS011;18502;43.574;1.276;2023-07-13T01:45:20;2.35;;;1.90;;
31978;SDS011;18502;43.574;1.276;2023-07-13T01:47:46;2.30;;;2.00;;
31978;SDS011;18502;43.574;1.276;2023-07-13T01:50:12;3.05;;;2.00;;
31978;SDS011;18502;43.574;1.276;2023-07-13T01:52:38;4.25;;;2.13;;
31978;SDS011;18502;43.574;1.276;2023-07-13T01:55:03;3.45;;;2.10;;
31978;SDS011;18502;43.574;1.276;2023-07-13T01:57:29;9.68;;;2.10;;
31978;SDS011;18502;43.574;1.276;2023-07-13T01:59:55;4.00;;;2.30;;
31978;SDS011;18502;43.574;1.276;2023-07-13T02:02:21;5.95;;;2.38;;
31978;SDS011;18502;43.574;1.276;2023-07-13T02:04:46;3.33;;;2.20;;
31978;SDS011;18502;43.574;1.276;2023-07-13T02:07:12;5.95;;;2.38;;
31978;SDS011;18502;43.574;1.276;2023-07-13T02:09:38;5.72;;;2.42;;
31978;SDS011;18502;43.574;1.276;2023-07-13T02:12:04;6.00;;;2.25;;
31978;SDS011;18502;43.574;1.276;2023-07-13T02:14:30;3.78;;;2.05;;
31978;SDS011;18502;43.574;1.276;2023-07-13T02:16:55;4.55;;;2.38;;
31978;SDS011;18502;43.574;1.276;2023-07-13T02:19:21;8.02;;;2.50;;
31978;SDS011;18502;43.574;1.276;2023-07-13T02:21:47;7.03;;;1.80;;
31978;SDS011;18502;43.574;1.276;2023-07-13T02:24:13;5.10;;;2.40;;
31978;SDS011;18502;43.574;1.276;2023-07-13T02:26:42;5.85;;;2.08;;
31978;SDS011;18502;43.574;1.276;2023-07-13T02:29:09;4.45;;;2.15;;
31978;SDS011;18502;43.574;1.276;2023-07-13T02:31:35;5.50;;;2.22;;
31978;SDS011;18502;43.574;1.276;2023-07-13T02:34:01;8.13;;;2.30;;
31978;SDS011;18502;43.574;1.276;2023-07-13T02:36:27;6.82;;;2.30;;
31978;SDS011;18502;43.574;1.276;2023-07-13T02:38:54;5.03;;;1.90;;
31978;SDS011;18502;43.574;1.276;2023-07-13T02:41:19;5.03;;;2.00;;
31978;SDS011;18502;43.574;1.276;2023-07-13T02:43:45;7.10;;;2.47;;
31978;SDS011;18502;43.574;1.276;2023-07-13T02:46:11;4.60;;;1.92;;
31978;SDS011;18502;43.574;1.276;2023-07-13T02:48:37;3.35;;;2.08;;
31978;SDS011;18502;43.574;1.276;2023-07-13T02:51:04;4.05;;;1.85;;
31978;SDS011;18502;43.574;1.276;2023-07-13T02:53:30;3.25;;;1.95;;
31978;SDS011;18502;43.574;1.276;2023-07-13T02:55:56;7.45;;;2.20;;
31978;SDS011;18502;43.574;1.276;2023-07-13T02:58:22;5.97;;;1.95;;
31978;SDS011;18502;43.574;1.276;2023-07-13T03:00:48;5.43;;;1.90;;
31978;SDS011;18502;43.574;1.276;2023-07-13T03:03:15;8.27;;;2.35;;
31978;SDS011;18502;43.574;1.276;2023-07-13T03:05:42;4.22;;;2.35;;
31978;SDS011;18502;43.574;1.276;2023-07-13T03:08:10;9.43;;;2.38;;
31978;SDS011;18502;43.574;1.276;2023-07-13T03:10:36;5.28;;;2.08;;
31978;SDS011;18502;43.574;1.276;2023-07-13T03:13:04;5.50;;;1.80;;
31978;SDS011;18502;43.574;1.276;2023-07-13T03:15:30;6.13;;;1.80;;
31978;SDS011;18502;43.574;1.276;2023-07-13T03:17:56;3.92;;;1.95;;
31978;SDS011;18502;43.574;1.276;2023-07-13T03:20:22;6.63;;;2.15;;
31978;SDS011;18502;43.574;1.276;2023-07-13T03:22:48;4.65;;;2.58;;
31978;SDS011;18502;43.574;1.276;2023-07-13T03:25:13;3.63;;;2.05;;
31978;SDS011;18502;43.574;1.276;2023-07-13T03:27:39;5.13;;;2.00;;
31978;SDS011;18502;43.574;1.276;2023-07-13T03:30:05;9.43;;;2.20;;
31978;SDS011;18502;43.574;1.276;2023-07-13T03:32:31;4.43;;;1.70;;
31978;SDS011;18502;43.574;1.276;2023-07-13T03:34:57;5.25;;;1.98;;
31978;SDS011;18502;43.574;1.276;2023-07-13T03:37:23;5.13;;;1.50;;
31978;SDS011;18502;43.574;1.276;2023-07-13T03:39:49;4.68;;;2.28;;
31978;SDS011;18502;43.574;1.276;2023-07-13T03:42:15;4.28;;;1.88;;
31978;SDS011;18502;43.574;1.276;2023-07-13T03:44:41;5.40;;;1.42;;
31978;SDS011;18502;43.574;1.276;2023-07-13T03:47:11;8.43;;;2.40;;
31978;SDS011;18502;43.574;1.276;2023-07-13T03:49:36;4.30;;;1.83;;
31978;SDS011;18502;43.574;1.276;2023-07-13T03:52:02;9.95;;;1.83;;
31978;SDS011;18502;43.574;1.276;2023-07-13T03:54:28;7.35;;;2.05;;
31978;SDS011;18502;43.574;1.276;2023-07-13T03:56:54;3.08;;;1.70;;
31978;SDS011;18502;43.574;1.276;2023-07-13T03:59:20;3.60;;;1.67;;
31978;SDS011;18502;43.574;1.276;2023-07-13T04:01:46;4.05;;;1.65;;
31978;SDS011;18502;43.574;1.276;2023-07-13T04:04:11;4.85;;;1.88;;
31978;SDS011;18502;43.574;1.276;2023-07-13T04:06:37;10.05;;;2.00;;
31978;SDS011;18502;43.574;1.276;2023-07-13T04:09:03;5.65;;;1.83;;
31978;SDS011;18502;43.574;1.276;2023-07-13T04:11:34;4.88;;;1.60;;
31978;SDS011;18502;43.574;1.276;2023-07-13T04:14:03;5.78;;;1.75;;
31978;SDS011;18502;43.574;1.276;2023-07-13T04:16:29;3.85;;;1.75;;
31978;SDS011;18502;43.574;1.276;2023-07-13T04:18:55;6.97;;;1.90;;
31978;SDS011;18502;43.574;1.276;2023-07-13T04:21:24;4.27;;;1.70;;
31978;SDS011;18502;43.574;1.276;2023-07-13T04:23:52;4.38;;;1.75;;
31978;SDS011;18502;43.574;1.276;2023-07-13T04:26:17;7.38;;;1.80;;
31978;SDS011;18502;43.574;1.276;2023-07-13T04:28:46;6.57;;;1.90;;
31978;SDS011;18502;43.574;1.276;2023-07-13T04:31:12;5.18;;;1.50;;
31978;SDS011;18502;43.574;1.276;2023-07-13T04:33:38;9.65;;;1.95;;
31978;SDS011;18502;43.574;1.276;2023-07-13T04:36:04;4.35;;;1.75;;
31978;SDS011;18502;43.574;1.276;2023-07-13T04:38:31;4.57;;;1.40;;
31978;SDS011;18502;43.574;1.276;2023-07-13T04:41:02;4.05;;;1.70;;
31978;SDS011;18502;43.574;1.276;2023-07-13T04:43:30;3.83;;;1.40;;
31978;SDS011;18502;43.574;1.276;2023-07-13T04:45:56;8.13;;;1.73;;
31978;SDS011;18502;43.574;1.276;2023-07-13T04:48:22;6.53;;;1.90;;
31978;SDS011;18502;43.574;1.276;2023-07-13T04:50:53;7.43;;;1.90;;
31978;SDS011;18502;43.574;1.276;2023-07-13T04:53:20;6.07;;;2.20;;
31978;SDS011;18502;43.574;1.276;2023-07-13T04:55:46;4.05;;;1.83;;
31978;SDS011;18502;43.574;1.276;2023-07-13T04:58:12;7.20;;;2.17;;
31978;SDS011;18502;43.574;1.276;2023-07-13T05:00:37;5.32;;;1.60;;
31978;SDS011;18502;43.574;1.276;2023-07-13T05:03:04;6.32;;;1.60;;
31978;SDS011;18502;43.574;1.276;2023-07-13T05:05:30;9.18;;;1.83;;
31978;SDS011;18502;43.574;1.276;2023-07-13T05:07:55;8.57;;;2.00;;
31978;SDS011;18502;43.574;1.276;2023-07-13T05:10:21;5.43;;;2.08;;
31978;SDS011;18502;43.574;1.276;2023-07-13T05:12:48;6.03;;;1.70;;
31978;SDS011;18502;43.574;1.276;2023-07-13T05:15:14;4.38;;;1.83;;
31978;SDS011;18502;43.574;1.276;2023-07-13T05:17:40;6.40;;;1.45;;
31978;SDS011;18502;43.574;1.276;2023-07-13T05:20:06;8.38;;;2.10;;
31978;SDS011;18502;43.574;1.276;2023-07-13T05:22:34;4.40;;;1.35;;
31978;SDS011;18502;43.574;1.276;2023-07-13T05:25:00;9.23;;;1.70;;
31978;SDS011;18502;43.574;1.276;2023-07-13T05:27:27;5.35;;;1.80;;
31978;SDS011;18502;43.574;1.276;2023-07-13T05:29:52;5.30;;;1.98;;
31978;SDS011;18502;43.574;1.276;2023-07-13T05:32:18;4.82;;;1.60;;
31978;SDS011;18502;43.574;1.276;2023-07-13T05:34:44;5.53;;;1.92;;
31978;SDS011;18502;43.574;1.276;2023-07-13T05:37:09;8.00;;;2.03;;
31978;SDS011;18502;43.574;1.276;2023-07-13T05:39:35;9.88;;;2.30;;
31978;SDS011;18502;43.574;1.276;2023-07-13T05:42:01;6.55;;;2.00;;
31978;SDS011;18502;43.574;1.276;2023-07-13T05:44:28;7.40;;;2.17;;
31978;SDS011;18502;43.574;1.276;2023-07-13T05:46:53;4.65;;;2.10;;
31978;SDS011;18502;43.574;1.276;2023-07-13T05:49:21;9.13;;;1.67;;
31978;SDS011;18502;43.574;1.276;2023-07-13T05:51:47;4.30;;;1.95;;
31978;SDS011;18502;43.574;1.276;2023-07-13T05:54:13;6.45;;;1.63;;
31978;SDS011;18502;43.574;1.276;2023-07-13T05:56:39;4.05;;;1.75;;
31978;SDS011;18502;43.574;1.276;2023-07-13T05:59:04;5.20;;;1.92;;
31978;SDS011;18502;43.574;1.276;2023-07-13T06:01:30;6.28;;;1.63;;
31978;SDS011;18502;43.574;1.276;2023-07-13T06:03:56;3.28;;;1.50;;
31978;SDS011;18502;43.574;1.276;2023-07-13T06:06:22;7.22;;;2.20;;
31978;SDS011;18502;43.574;1.276;2023-07-13T06:08:48;3.70;;;1.45;;
31978;SDS011;18502;43.574;1.276;2023-07-13T06:11:15;6.18;;;2.28;;
31978;SDS011;18502;43.574;1.276;2023-07-13T06:13:44;3.78;;;1.40;;
31978;SDS011;18502;43.574;1.276;2023-07-13T06:16:09;6.22;;;1.60;;
31978;SDS011;18502;43.574;1.276;2023-07-13T06:18:36;4.60;;;1.75;;
31978;SDS011;18502;43.574;1.276;2023-07-13T06:21:10;7.00;;;1.40;;
31978;SDS011;18502;43.574;1.276;2023-07-13T06:23:45;7.10;;;2.03;;
31978;SDS011;18502;43.574;1.276;2023-07-13T06:26:15;5.25;;;1.60;;
31978;SDS011;18502;43.574;1.276;2023-07-13T06:28:42;8.00;;;1.88;;
31978;SDS011;18502;43.574;1.276;2023-07-13T06:31:09;5.00;;;1.85;;
31978;SDS011;18502;43.574;1.276;2023-07-13T06:33:37;4.50;;;1.50;;
31978;SDS011;18502;43.574;1.276;2023-07-13T06:36:03;6.05;;;1.65;;
31978;SDS011;18502;43.574;1.276;2023-07-13T06:38:30;4.47;;;1.80;;
31978;SDS011;18502;43.574;1.276;2023-07-13T06:40:57;8.18;;;1.95;;
31978;SDS011;18502;43.574;1.276;2023-07-13T06:43:23;4.15;;;1.33;;
31978;SDS011;18502;43.574;1.276;2023-07-13T06:45:50;5.05;;;1.40;;
31978;SDS011;18502;43.574;1.276;2023-07-13T06:48:16;2.33;;;1.35;;
31978;SDS011;18502;43.574;1.276;2023-07-13T06:50:43;6.25;;;1.42;;
31978;SDS011;18502;43.574;1.276;2023-07-13T06:53:10;4.30;;;1.40;;
31978;SDS011;18502;43.574;1.276;2023-07-13T06:55:37;4.85;;;1.30;;
31978;SDS011;18502;43.574;1.276;2023-07-13T06:58:03;5.55;;;1.20;;
31978;SDS011;18502;43.574;1.276;2023-07-13T07:00:29;3.45;;;1.50;;
31978;SDS011;18502;43.574;1.276;2023-07-13T07:02:55;2.92;;;1.02;;
31978;SDS011;18502;43.574;1.276;2023-07-13T07:05:21;3.80;;;1.40;;
31978;SDS011;18502;43.574;1.276;2023-07-13T07:07:50;2.38;;;1.17;;
31978;SDS011;18502;43.574;1.276;2023-07-13T07:10:17;2.78;;;1.13;;
31978;SDS011;18502;43.574;1.276;2023-07-13T07:12:44;5.07;;;1.20;;
31978;SDS011;18502;43.574;1.276;2023-07-13T07:15:09;4.75;;;1.27;;
31978;SDS011;18502;43.574;1.276;2023-07-13T07:17:35;7.57;;;1.35;;
31978;SDS011;18502;43.574;1.276;2023-07-13T07:20:01;3.63;;;0.75;;
31978;SDS011;18502;43.574;1.276;2023-07-13T07:22:28;3.17;;;0.95;;
31978;SDS011;18502;43.574;1.276;2023-07-13T07:24:55;6.60;;;1.17;;
31978;SDS011;18502;43.574;1.276;2023-07-13T07:27:21;3.85;;;0.95;;
31978;SDS011;18502;43.574;1.276;2023-07-13T07:29:47;4.28;;;1.17;;
31978;SDS011;18502;43.574;1.276;2023-07-13T07:32:12;2.50;;;0.95;;
31978;SDS011;18502;43.574;1.276;2023-07-13T07:34:38;2.28;;;0.80;;
31978;SDS011;18502;43.574;1.276;2023-07-13T07:37:04;5.47;;;1.80;;
31978;SDS011;18502;43.574;1.276;2023-07-13T07:39:30;4.22;;;1.58;;
31978;SDS011;18502;43.574;1.276;2023-07-13T07:41:56;4.40;;;0.80;;
31978;SDS011;18502;43.574;1.276;2023-07-13T07:44:22;5.60;;;1.23;;
31978;SDS011;18502;43.574;1.276;2023-07-13T07:46:47;3.50;;;0.68;;
31978;SDS011;18502;43.574;1.276;2023-07-13T07:49:14;3.00;;;0.80;;
31978;SDS011;18502;43.574;1.276;2023-07-13T07:51:40;4.90;;;0.90;;
31978;SDS011;18502;43.574;1.276;2023-07-13T07:54:05;5.32;;;0.90;;
31978;SDS011;18502;43.574;1.276;2023-07-13T07:56:31;3.53;;;1.38;;
31978;SDS011;18502;43.574;1.276;2023-07-13T07:58:57;4.57;;;1.05;;
31978;SDS011;18502;43.574;1.276;2023-07-13T08:01:23;4.57;;;0.98;;
31978;SDS011;18502;43.574;1.276;2023-07-13T08:03:49;2.92;;;0.90;;
31978;SDS011;18502;43.574;1.276;2023-07-13T08:06:15;3.20;;;0.80;;
31978;SDS011;18502;43.574;1.276;2023-07-13T08:08:41;4.22;;;0.80;;
31978;SDS011;18502;43.574;1.276;2023-07-13T08:11:07;3.03;;;0.85;;
31978;SDS011;18502;43.574;1.276;2023-07-13T08:13:33;4.63;;;0.80;;
31978;SDS011;18502;43.574;1.276;2023-07-13T08:15:59;1.90;;;0.70;;
31978;SDS011;18502;43.574;1.276;2023-07-13T08:18:25;4.68;;;1.33;;
31978;SDS011;18502;43.574;1.276;2023-07-13T08:20:53;4.28;;;0.82;;
31978;SDS011;18502;43.574;1.276;2023-07-13T08:23:21;2.78;;;0.90;;
31978;SDS011;18502;43.574;1.276;2023-07-13T08:25:50;5.07;;;0.65;;
31978;SDS011;18502;43.574;1.276;2023-07-13T08:28:17;1.73;;;0.50;;
31978;SDS011;18502;43.574;1.276;2023-07-13T08:30:43;4.32;;;0.80;;
31978;SDS011;18502;43.574;1.276;2023-07-13T08:33:09;3.92;;;0.93;;
31978;SDS011;18502;43.574;1.276;2023-07-13T08:35:35;5.78;;;0.85;;
31978;SDS011;18502;43.574;1.276;2023-07-13T08:38:00;2.60;;;0.60;;
31978;SDS011;18502;43.574;1.276;2023-07-13T08:40:27;3.38;;;0.80;;
31978;SDS011;18502;43.574;1.276;2023-07-13T08:42:57;2.63;;;0.50;;
31978;SDS011;18502;43.574;1.276;2023-07-13T08:45:25;1.85;;;0.68;;
31978;SDS011;18502;43.574;1.276;2023-07-13T08:50:31;2.67;;;0.90;;
31978;SDS011;18502;43.574;1.276;2023-07-13T08:53:01;2.63;;;0.88;;
31978;SDS011;18502;43.574;1.276;2023-07-13T08:55:33;1.00;;;0.43;;
31978;SDS011;18502;43.574;1.276;2023-07-13T08:58:09;4.35;;;1.10;;
31978;SDS011;18502;43.574;1.276;2023-07-13T09:00:44;1.55;;;0.60;;
31978;SDS011;18502;43.574;1.276;2023-07-13T09:03:24;3.70;;;1.02;;
31978;SDS011;18502;43.574;1.276;2023-07-13T09:05:56;1.33;;;0.70;;
31978;SDS011;18502;43.574;1.276;2023-07-13T09:13:59;4.60;;;0.98;;
31978;SDS011;18502;43.574;1.276;2023-07-13T09:16:39;5.82;;;1.20;;
31978;SDS011;18502;43.574;1.276;2023-07-13T09:19:06;3.08;;;0.68;;
31978;SDS011;18502;43.574;1.276;2023-07-13T09:21:39;3.50;;;0.80;;
31978;SDS011;18502;43.574;1.276;2023-07-13T09:26:47;3.42;;;0.82;;
31978;SDS011;18502;43.574;1.276;2023-07-13T09:29:30;3.67;;;1.25;;
31978;SDS011;18502;43.574;1.276;2023-07-13T09:32:01;2.95;;;0.90;;
31978;SDS011;18502;43.574;1.276;2023-07-13T09:34:31;1.70;;;0.50;;
31978;SDS011;18502;43.574;1.276;2023-07-13T09:36:58;2.92;;;0.82;;
31978;SDS011;18502;43.574;1.276;2023-07-13T09:41:57;2.28;;;1.08;;
31978;SDS011;18502;43.574;1.276;2023-07-13T09:44:36;2.63;;;0.55;;
31978;SDS011;18502;43.574;1.276;2023-07-13T09:47:12;2.20;;;0.80;;
31978;SDS011;18502;43.574;1.276;2023-07-13T09:49:41;5.38;;;1.27;;
31978;SDS011;18502;43.574;1.276;2023-07-13T09:52:12;3.78;;;0.95;;
31978;SDS011;18502;43.574;1.276;2023-07-13T09:54:43;3.03;;;0.75;;
31978;SDS011;18502;43.574;1.276;2023-07-13T09:57:14;4.25;;;0.60;;
31978;SDS011;18502;43.574;1.276;2023-07-13T09:59:43;1.65;;;0.80;;
31978;SDS011;18502;43.574;1.276;2023-07-13T10:04:53;3.85;;;0.95;;
31978;SDS011;18502;43.574;1.276;2023-07-13T10:07:30;3.95;;;1.52;;
31978;SDS011;18502;43.574;1.276;2023-07-13T10:09:58;2.60;;;0.68;;
31978;SDS011;18502;43.574;1.276;2023-07-13T10:12:28;2.15;;;0.90;;
31978;SDS011;18502;43.574;1.276;2023-07-13T10:14:56;3.05;;;0.93;;
31978;SDS011;18502;43.574;1.276;2023-07-13T10:19:55;2.05;;;0.90;;
31978;SDS011;18502;43.574;1.276;2023-07-13T10:22:50;3.45;;;1.17;;
31978;SDS011;18502;43.574;1.276;2023-07-13T10:25:34;3.90;;;0.85;;
31978;SDS011;18502;43.574;1.276;2023-07-13T10:28:05;2.67;;;0.70;;
31978;SDS011;18502;43.574;1.276;2023-07-13T10:30:38;3.15;;;0.88;;
31978;SDS011;18502;43.574;1.276;2023-07-13T10:33:08;2.70;;;0.85;;
31978;SDS011;18502;43.574;1.276;2023-07-13T10:35:36;1.65;;;0.80;;
31978;SDS011;18502;43.574;1.276;2023-07-13T10:38:07;3.13;;;1.67;;
31978;SDS011;18502;43.574;1.276;2023-07-13T10:40:45;6.22;;;1.00;;
31978;SDS011;18502;43.574;1.276;2023-07-13T10:43:22;3.95;;;0.80;;
31978;SDS011;18502;43.574;1.276;2023-07-13T10:46:10;3.67;;;0.80;;
31978;SDS011;18502;43.574;1.276;2023-07-13T10:48:38;1.60;;;0.90;;
31978;SDS011;18502;43.574;1.276;2023-07-13T10:51:05;1.70;;;0.90;;
31978;SDS011;18502;43.574;1.276;2023-07-13T10:56:00;2.60;;;0.95;;
31978;SDS011;18502;43.574;1.276;2023-07-13T10:58:34;3.08;;;1.02;;
31978;SDS011;18502;43.574;1.276;2023-07-13T11:01:38;3.08;;;0.82;;
31978;SDS011;18502;43.574;1.276;2023-07-13T11:04:04;2.15;;;1.02;;
31978;SDS011;18502;43.574;1.276;2023-07-13T11:06:34;2.05;;;0.90;;
31978;SDS011;18502;43.574;1.276;2023-07-13T11:09:19;4.07;;;0.98;;
31978;SDS011;18502;43.574;1.276;2023-07-13T11:11:45;3.58;;;1.00;;
31978;SDS011;18502;43.574;1.276;2023-07-13T11:16:55;2.40;;;0.70;;
31978;SDS011;18502;43.574;1.276;2023-07-13T11:24:55;3.10;;;0.77;;
31978;SDS011;18502;43.574;1.276;2023-07-13T11:27:34;2.78;;;1.00;;
31978;SDS011;18502;43.574;1.276;2023-07-13T11:30:13;1.48;;;0.90;;
31978;SDS011;18502;43.574;1.276;2023-07-13T11:38:32;1.67;;;0.88;;
31978;SDS011;18502;43.574;1.276;2023-07-13T11:41:07;2.00;;;0.63;;
31978;SDS011;18502;43.574;1.276;2023-07-13T11:44:05;2.78;;;0.68;;
31978;SDS011;18502;43.574;1.276;2023-07-13T11:46:57;3.20;;;1.20;;
31978;SDS011;18502;43.574;1.276;2023-07-13T11:49:47;2.78;;;0.80;;
31978;SDS011;18502;43.574;1.276;2023-07-13T11:52:26;3.20;;;0.90;;
31978;SDS011;18502;43.574;1.276;2023-07-13T11:54:59;1.05;;;0.60;;
31978;SDS011;18502;43.574;1.276;2023-07-13T11:59:59;0.98;;;0.70;;
31978;SDS011;18502;43.574;1.276;2023-07-13T12:02:38;1.08;;;0.50;;
31978;SDS011;18502;43.574;1.276;2023-07-13T12:07:37;1.50;;;0.73;;
31978;SDS011;18502;43.574;1.276;2023-07-13T12:10:13;3.08;;;0.82;;
31978;SDS011;18502;43.574;1.276;2023-07-13T12:12:57;2.08;;;0.98;;
31978;SDS011;18502;43.574;1.276;2023-07-13T12:15:37;3.22;;;1.25;;
31978;SDS011;18502;43.574;1.276;2023-07-13T12:18:21;1.98;;;0.80;;
31978;SDS011;18502;43.574;1.276;2023-07-13T12:20:49;4.10;;;0.65;;
31978;SDS011;18502;43.574;1.276;2023-07-13T12:25:57;1.98;;;0.60;;
31978;SDS011;18502;43.574;1.276;2023-07-13T12:28:35;2.90;;;1.00;;
31978;SDS011;18502;43.574;1.276;2023-07-13T12:31:03;4.55;;;1.00;;
31978;SDS011;18502;43.574;1.276;2023-07-13T12:33:45;3.35;;;0.80;;
31978;SDS011;18502;43.574;1.276;2023-07-13T12:36:10;2.15;;;0.70;;
31978;SDS011;18502;43.574;1.276;2023-07-13T12:38:37;2.72;;;0.75;;
31978;SDS011;18502;43.574;1.276;2023-07-13T12:41:03;2.13;;;0.90;;
31978;SDS011;18502;43.574;1.276;2023-07-13T12:43:32;2.22;;;0.75;;
31978;SDS011;18502;43.574;1.276;2023-07-13T12:46:14;1.35;;;0.80;;
31978;SDS011;18502;43.574;1.276;2023-07-13T12:48:48;1.25;;;0.63;;
31978;SDS011;18502;43.574;1.276;2023-07-13T12:51:21;3.40;;;0.80;;
31978;SDS011;18502;43.574;1.276;2023-07-13T12:53:50;3.42;;;0.70;;
31978;SDS011;18502;43.574;1.276;2023-07-13T12:56:22;3.50;;;0.90;;
31978;SDS011;18502;43.574;1.276;2023-07-13T12:58:50;2.65;;;0.77;;
31978;SDS011;18502;43.574;1.276;2023-07-13T13:01:22;2.83;;;0.93;;
31978;SDS011;18502;43.574;1.276;2023-07-13T13:03:52;1.95;;;0.63;;
31978;SDS011;18502;43.574;1.276;2023-07-13T13:06:21;3.40;;;0.90;;
31978;SDS011;18502;43.574;1.276;2023-07-13T13:08:49;1.65;;;0.80;;
31978;SDS011;18502;43.574;1.276;2023-07-13T13:11:20;2.58;;;0.80;;
31978;SDS011;18502;43.574;1.276;2023-07-13T13:13:48;1.02;;;0.50;;
31978;SDS011;18502;43.574;1.276;2023-07-13T13:16:17;2.88;;;0.80;;
31978;SDS011;18502;43.574;1.276;2023-07-13T13:18:54;3.38;;;0.70;;
31978;SDS011;18502;43.574;1.276;2023-07-13T13:21:22;3.05;;;1.23;;
31978;SDS011;18502;43.574;1.276;2023-07-13T13:23:49;2.72;;;0.70;;
31978;SDS011;18502;43.574;1.276;2023-07-13T13:26:16;2.25;;;0.77;;
31978;SDS011;18502;43.574;1.276;2023-07-13T13:28:43;2.35;;;0.50;;
31978;SDS011;18502;43.574;1.276;2023-07-13T13:31:10;4.70;;;1.00;;
31978;SDS011;18502;43.574;1.276;2023-07-13T13:33:38;1.90;;;0.60;;
31978;SDS011;18502;43.574;1.276;2023-07-13T13:36:19;2.60;;;0.60;;
31978;SDS011;18502;43.574;1.276;2023-07-13T13:38:47;1.33;;;0.70;;
31978;SDS011;18502;43.574;1.276;2023-07-13T13:41:13;1.60;;;0.70;;
31978;SDS011;18502;43.574;1.276;2023-07-13T13:43:43;1.75;;;0.85;;
31978;SDS011;18502;43.574;1.276;2023-07-13T13:46:14;2.05;;;0.75;;
31978;SDS011;18502;43.574;1.276;2023-07-13T13:48:46;2.70;;;0.70;;
31978;SDS011;18502;43.574;1.276;2023-07-13T13:51:16;0.77;;;0.50;;
31978;SDS011;18502;43.574;1.276;2023-07-13T13:53:44;2.65;;;0.60;;
31978;SDS011;18502;43.574;1.276;2023-07-13T13:56:11;1.83;;;0.77;;
31978;SDS011;18502;43.574;1.276;2023-07-13T13:58:40;3.13;;;0.68;;
31978;SDS011;18502;43.574;1.276;2023-07-13T14:01:13;2.97;;;0.60;;
31978;SDS011;18502;43.574;1.276;2023-07-13T14:03:44;3.13;;;0.85;;
31978;SDS011;18502;43.574;1.276;2023-07-13T14:06:11;3.20;;;0.70;;
31978;SDS011;18502;43.574;1.276;2023-07-13T14:08:38;1.65;;;0.88;;
31978;SDS011;18502;43.574;1.276;2023-07-13T14:11:04;2.03;;;0.55;;
31978;SDS011;18502;43.574;1.276;2023-07-13T14:13:32;1.27;;;0.50;;
31978;SDS011;18502;43.574;1.276;2023-07-13T14:16:02;1.35;;;0.55;;
31978;SDS011;18502;43.574;1.276;2023-07-13T14:18:30;1.35;;;0.70;;
31978;SDS011;18502;43.574;1.276;2023-07-13T14:20:56;2.05;;;0.63;;
31978;SDS011;18502;43.574;1.276;2023-07-13T14:23:21;2.45;;;0.82;;
31978;SDS011;18502;43.574;1.276;2023-07-13T14:25:47;2.90;;;0.80;;
31978;SDS011;18502;43.574;1.276;2023-07-13T14:30:48;2.72;;;0.50;;
31978;SDS011;18502;43.574;1.276;2023-07-13T14:33:14;2.13;;;0.63;;
31978;SDS011;18502;43.574;1.276;2023-07-13T14:35:40;3.80;;;0.88;;
31978;SDS011;18502;43.574;1.276;2023-07-13T14:38:08;2.10;;;0.80;;
31978;SDS011;18502;43.574;1.276;2023-07-13T14:40:41;2.58;;;0.70;;
31978;SDS011;18502;43.574;1.276;2023-07-13T14:43:10;2.05;;;1.05;;
31978;SDS011;18502;43.574;1.276;2023-07-13T14:45:38;2.58;;;0.60;;
31978;SDS011;18502;43.574;1.276;2023-07-13T14:50:53;5.03;;;0.90;;
31978;SDS011;18502;43.574;1.276;2023-07-13T14:53:21;2.00;;;0.88;;
31978;SDS011;18502;43.574;1.276;2023-07-13T14:55:47;2.25;;;0.60;;
31978;SDS011;18502;43.574;1.276;2023-07-13T14:58:13;1.70;;;0.50;;
31978;SDS011;18502;43.574;1.276;2023-07-13T15:00:39;1.80;;;0.80;;
31978;SDS011;18502;43.574;1.276;2023-07-13T15:03:05;1.73;;;0.55;;
31978;SDS011;18502;43.574;1.276;2023-07-13T15:05:49;2.88;;;0.65;;
31978;SDS011;18502;43.574;1.276;2023-07-13T15:08:15;2.53;;;0.82;;
31978;SDS011;18502;43.574;1.276;2023-07-13T15:10:41;2.35;;;0.80;;
31978;SDS011;18502;43.574;1.276;2023-07-13T15:15:40;2.28;;;0.70;;
31978;SDS011;18502;43.574;1.276;2023-07-13T15:18:11;2.05;;;0.70;;
31978;SDS011;18502;43.574;1.276;2023-07-13T15:20:38;4.72;;;0.77;;
31978;SDS011;18502;43.574;1.276;2023-07-13T15:23:04;1.15;;;0.68;;
31978;SDS011;18502;43.574;1.276;2023-07-13T15:25:30;2.38;;;0.65;;
31978;SDS011;18502;43.574;1.276;2023-07-13T15:27:58;3.08;;;0.82;;
31978;SDS011;18502;43.574;1.276;2023-07-13T15:30:46;3.10;;;1.10;;
31978;SDS011;18502;43.574;1.276;2023-07-13T15:33:23;0.80;;;0.50;;
31978;SDS011;18502;43.574;1.276;2023-07-13T15:35:54;1.83;;;0.50;;
31978;SDS011;18502;43.574;1.276;2023-07-13T15:38:22;3.00;;;0.93;;
31978;SDS011;18502;43.574;1.276;2023-07-13T15:40:53;2.88;;;1.20;;
31978;SDS011;18502;43.574;1.276;2023-07-13T15:43:19;2.15;;;0.68;;
31978;SDS011;18502;43.574;1.276;2023-07-13T15:45:45;2.05;;;0.68;;
31978;SDS011;18502;43.574;1.276;2023-07-13T15:48:13;1.33;;;0.70;;